sensor_id;sensor_type;location;lat;lon;timestamp;P1;durP1;ratioP1;P2;durP2;ratioP2
11121;SDS011;5615;49.304;10.576;2023-12-28T00:01:06;15.27;;;9.67;;
11121;SDS011;5615;49.304;10.576;2023-12-28T00:03:33;11.00;;;8.93;;
11121;SDS011;5615;49.304;10.576;2023-12-28T00:05:59;11.43;;;9.23;;
11121;SDS011;5615;49.304;10.576;2023-12-28T00:08:27;12.00;;;8.90;;
11121;SDS011;5615;49.304;10.576;2023-12-28T00:10:54;12.80;;;8.30;;
11121;SDS011;5615;49.304;10.576;2023-12-28T00:13:20;14.40;;;9.07;;
11121;SDS011;5615;49.304;10.576;2023-12-28T00:15:47;13.60;;;9.00;;
11121;SDS011;5615;49.304;10.576;2023-12-28T00:18:14;18.47;;;9.80;;
11121;SDS011;5615;49.304;10.576;2023-12-28T00:20:40;12.90;;;9.00;;
11121;SDS011;5615;49.304;10.576;2023-12-28T00:23:07;12.93;;;8.57;;
11121;SDS011;5615;49.304;10.576;2023-12-28T00:25:35;15.20;;;8.63;;
11121;SDS011;5615;49.304;10.576;2023-12-28T00:28:02;11.17;;;8.63;;
11121;SDS011;5615;49.304;10.576;2023-12-28T00:30:29;11.00;;;7.70;;
11121;SDS011;5615;49.304;10.576;2023-12-28T00:32:57;13.37;;;8.23;;
11121;SDS011;5615;49.304;10.576;2023-12-28T00:35:24;11.13;;;8.50;;
11121;SDS011;5615;49.304;10.576;2023-12-28T00:37:50;11.17;;;8.13;;
11121;SDS011;5615;49.304;10.576;2023-12-28T00:40:17;12.00;;;8.03;;
11121;SDS011;5615;49.304;10.576;2023-12-28T00:42:45;12.93;;;8.90;;
11121;SDS011;5615;49.304;10.576;2023-12-28T00:45:11;10.90;;;8.57;;
11121;SDS011;5615;49.304;10.576;2023-12-28T00:47:38;12.27;;;8.73;;
11121;SDS011;5615;49.304;10.576;2023-12-28T00:50:08;12.73;;;8.63;;
11121;SDS011;5615;49.304;10.576;2023-12-28T00:52:36;10.23;;;7.57;;
11121;SDS011;5615;49.304;10.576;2023-12-28T00:55:03;12.50;;;8.53;;
11121;SDS011;5615;49.304;10.576;2023-12-28T00:57:30;12.77;;;8.53;;
11121;SDS011;5615;49.304;10.576;2023-12-28T00:59:58;11.70;;;8.47;;
11121;SDS011;5615;49.304;10.576;2023-12-28T01:02:25;9.87;;;7.10;;
11121;SDS011;5615;49.304;10.576;2023-12-28T01:04:52;10.30;;;8.30;;
11121;SDS011;5615;49.304;10.576;2023-12-28T01:07:19;11.23;;;7.60;;
11121;SDS011;5615;49.304;10.576;2023-12-28T01:09:45;11.77;;;7.90;;
11121;SDS011;5615;49.304;10.576;2023-12-28T01:12:12;8.40;;;7.50;;
11121;SDS011;5615;49.304;10.576;2023-12-28T01:14:39;9.23;;;7.37;;
11121;SDS011;5615;49.304;10.576;2023-12-28T01:17:06;9.87;;;7.87;;
11121;SDS011;5615;49.304;10.576;2023-12-28T01:19:33;8.40;;;6.60;;
11121;SDS011;5615;49.304;10.576;2023-12-28T01:22:00;10.20;;;7.40;;
11121;SDS011;5615;49.304;10.576;2023-12-28T01:24:26;8.93;;;6.70;;
11121;SDS011;5615;49.304;10.576;2023-12-28T01:26:53;8.57;;;6.23;;
11121;SDS011;5615;49.304;10.576;2023-12-28T01:29:20;11.30;;;7.50;;
11121;SDS011;5615;49.304;10.576;2023-12-28T01:31:46;10.97;;;8.27;;
11121;SDS011;5615;49.304;10.576;2023-12-28T01:34:14;14.73;;;8.53;;
11121;SDS011;5615;49.304;10.576;2023-12-28T01:36:41;10.00;;;7.17;;
11121;SDS011;5615;49.304;10.576;2023-12-28T01:39:09;10.03;;;7.00;;
11121;SDS011;5615;49.304;10.576;2023-12-28T01:41:36;9.33;;;6.73;;
11121;SDS011;5615;49.304;10.576;2023-12-28T01:44:03;10.00;;;6.40;;
11121;SDS011;5615;49.304;10.576;2023-12-28T01:46:30;9.33;;;6.23;;
11121;SDS011;5615;49.304;10.576;2023-12-28T01:48:57;7.77;;;6.83;;
11121;SDS011;5615;49.304;10.576;2023-12-28T01:51:25;9.57;;;6.50;;
11121;SDS011;5615;49.304;10.576;2023-12-28T01:53:52;9.83;;;5.50;;
11121;SDS011;5615;49.304;10.576;2023-12-28T01:56:19;8.77;;;6.47;;
11121;SDS011;5615;49.304;10.576;2023-12-28T01:58:46;13.73;;;6.53;;
11121;SDS011;5615;49.304;10.576;2023-12-28T02:01:15;10.13;;;6.33;;
11121;SDS011;5615;49.304;10.576;2023-12-28T02:03:43;9.13;;;7.00;;
11121;SDS011;5615;49.304;10.576;2023-12-28T02:06:10;9.10;;;6.40;;
11121;SDS011;5615;49.304;10.576;2023-12-28T02:08:39;10.50;;;6.37;;
11121;SDS011;5615;49.304;10.576;2023-12-28T02:11:06;10.33;;;5.73;;
11121;SDS011;5615;49.304;10.576;2023-12-28T02:13:32;10.57;;;6.10;;
11121;SDS011;5615;49.304;10.576;2023-12-28T02:16:00;8.43;;;5.93;;
11121;SDS011;5615;49.304;10.576;2023-12-28T02:18:33;9.70;;;5.73;;
11121;SDS011;5615;49.304;10.576;2023-12-28T02:21:04;7.30;;;5.83;;
11121;SDS011;5615;49.304;10.576;2023-12-28T02:23:32;7.20;;;5.43;;
11121;SDS011;5615;49.304;10.576;2023-12-28T02:26:00;8.90;;;5.70;;
11121;SDS011;5615;49.304;10.576;2023-12-28T02:28:27;6.53;;;5.30;;
11121;SDS011;5615;49.304;10.576;2023-12-28T02:30:54;7.40;;;5.30;;
11121;SDS011;5615;49.304;10.576;2023-12-28T02:33:22;7.60;;;5.47;;
11121;SDS011;5615;49.304;10.576;2023-12-28T02:35:55;8.43;;;5.60;;
11121;SDS011;5615;49.304;10.576;2023-12-28T02:38:25;9.30;;;5.60;;
11121;SDS011;5615;49.304;10.576;2023-12-28T02:40:55;6.63;;;5.50;;
11121;SDS011;5615;49.304;10.576;2023-12-28T02:43:24;7.17;;;5.50;;
11121;SDS011;5615;49.304;10.576;2023-12-28T02:45:51;6.87;;;5.17;;
11121;SDS011;5615;49.304;10.576;2023-12-28T02:48:18;8.97;;;5.90;;
11121;SDS011;5615;49.304;10.576;2023-12-28T02:50:45;8.03;;;5.60;;
11121;SDS011;5615;49.304;10.576;2023-12-28T02:53:11;8.70;;;5.80;;
11121;SDS011;5615;49.304;10.576;2023-12-28T02:55:38;7.67;;;5.87;;
11121;SDS011;5615;49.304;10.576;2023-12-28T02:58:05;7.20;;;5.27;;
11121;SDS011;5615;49.304;10.576;2023-12-28T03:00:33;6.37;;;4.77;;
11121;SDS011;5615;49.304;10.576;2023-12-28T03:02:59;6.40;;;4.93;;
11121;SDS011;5615;49.304;10.576;2023-12-28T03:05:26;5.97;;;4.90;;
11121;SDS011;5615;49.304;10.576;2023-12-28T03:07:53;8.73;;;5.13;;
11121;SDS011;5615;49.304;10.576;2023-12-28T03:10:20;6.83;;;5.33;;
11121;SDS011;5615;49.304;10.576;2023-12-28T03:12:47;5.97;;;4.97;;
11121;SDS011;5615;49.304;10.576;2023-12-28T03:15:14;7.03;;;5.40;;
11121;SDS011;5615;49.304;10.576;2023-12-28T03:17:42;6.57;;;5.43;;
11121;SDS011;5615;49.304;10.576;2023-12-28T03:20:09;6.60;;;5.27;;
11121;SDS011;5615;49.304;10.576;2023-12-28T03:22:36;7.97;;;5.83;;
11121;SDS011;5615;49.304;10.576;2023-12-28T03:25:03;7.13;;;5.07;;
11121;SDS011;5615;49.304;10.576;2023-12-28T03:27:31;7.07;;;5.13;;
11121;SDS011;5615;49.304;10.576;2023-12-28T03:29:57;8.60;;;4.87;;
11121;SDS011;5615;49.304;10.576;2023-12-28T03:32:24;8.93;;;6.03;;
11121;SDS011;5615;49.304;10.576;2023-12-28T03:34:52;8.03;;;6.00;;
11121;SDS011;5615;49.304;10.576;2023-12-28T03:37:19;10.47;;;4.93;;
11121;SDS011;5615;49.304;10.576;2023-12-28T03:39:45;8.80;;;5.60;;
11121;SDS011;5615;49.304;10.576;2023-12-28T03:42:12;7.27;;;5.83;;
11121;SDS011;5615;49.304;10.576;2023-12-28T03:44:39;7.07;;;5.40;;
11121;SDS011;5615;49.304;10.576;2023-12-28T03:47:06;9.70;;;5.60;;
11121;SDS011;5615;49.304;10.576;2023-12-28T03:49:33;5.87;;;5.17;;
11121;SDS011;5615;49.304;10.576;2023-12-28T03:52:01;7.20;;;5.40;;
11121;SDS011;5615;49.304;10.576;2023-12-28T03:54:27;7.50;;;5.43;;
11121;SDS011;5615;49.304;10.576;2023-12-28T03:56:54;7.33;;;5.10;;
11121;SDS011;5615;49.304;10.576;2023-12-28T03:59:20;6.90;;;5.20;;
11121;SDS011;5615;49.304;10.576;2023-12-28T04:01:47;6.53;;;5.33;;
11121;SDS011;5615;49.304;10.576;2023-12-28T04:04:14;7.17;;;5.60;;
11121;SDS011;5615;49.304;10.576;2023-12-28T04:06:40;6.47;;;5.13;;
11121;SDS011;5615;49.304;10.576;2023-12-28T04:09:12;7.83;;;5.03;;
11121;SDS011;5615;49.304;10.576;2023-12-28T04:11:39;6.90;;;5.00;;
11121;SDS011;5615;49.304;10.576;2023-12-28T04:14:06;6.60;;;5.03;;
11121;SDS011;5615;49.304;10.576;2023-12-28T04:16:32;7.07;;;5.73;;
11121;SDS011;5615;49.304;10.576;2023-12-28T04:18:59;7.43;;;5.57;;
11121;SDS011;5615;49.304;10.576;2023-12-28T04:21:25;8.10;;;5.70;;
11121;SDS011;5615;49.304;10.576;2023-12-28T04:23:52;8.17;;;5.80;;
11121;SDS011;5615;49.304;10.576;2023-12-28T04:26:20;8.40;;;5.60;;
11121;SDS011;5615;49.304;10.576;2023-12-28T04:28:47;10.33;;;6.63;;
11121;SDS011;5615;49.304;10.576;2023-12-28T04:31:13;11.87;;;7.57;;
11121;SDS011;5615;49.304;10.576;2023-12-28T04:33:40;9.93;;;6.53;;
11121;SDS011;5615;49.304;10.576;2023-12-28T04:36:07;10.13;;;7.00;;
11121;SDS011;5615;49.304;10.576;2023-12-28T04:38:33;11.23;;;6.80;;
11121;SDS011;5615;49.304;10.576;2023-12-28T04:41:00;7.90;;;6.57;;
11121;SDS011;5615;49.304;10.576;2023-12-28T04:43:28;9.17;;;6.13;;
11121;SDS011;5615;49.304;10.576;2023-12-28T04:45:55;12.57;;;7.43;;
11121;SDS011;5615;49.304;10.576;2023-12-28T04:48:22;9.57;;;6.67;;
11121;SDS011;5615;49.304;10.576;2023-12-28T04:50:51;11.20;;;6.83;;
11121;SDS011;5615;49.304;10.576;2023-12-28T04:53:18;9.40;;;6.90;;
11121;SDS011;5615;49.304;10.576;2023-12-28T04:55:45;12.93;;;7.57;;
11121;SDS011;5615;49.304;10.576;2023-12-28T04:58:11;9.87;;;6.63;;
11121;SDS011;5615;49.304;10.576;2023-12-28T05:00:39;11.17;;;7.10;;
11121;SDS011;5615;49.304;10.576;2023-12-28T05:03:06;8.80;;;6.47;;
11121;SDS011;5615;49.304;10.576;2023-12-28T05:05:33;7.80;;;5.63;;
11121;SDS011;5615;49.304;10.576;2023-12-28T05:07:59;9.93;;;6.20;;
11121;SDS011;5615;49.304;10.576;2023-12-28T05:10:26;13.53;;;6.67;;
11121;SDS011;5615;49.304;10.576;2023-12-28T05:12:53;12.27;;;6.60;;
11121;SDS011;5615;49.304;10.576;2023-12-28T05:15:19;9.90;;;6.30;;
11121;SDS011;5615;49.304;10.576;2023-12-28T05:17:47;12.13;;;6.30;;
11121;SDS011;5615;49.304;10.576;2023-12-28T05:20:15;8.73;;;5.67;;
11121;SDS011;5615;49.304;10.576;2023-12-28T05:22:42;8.23;;;5.90;;
11121;SDS011;5615;49.304;10.576;2023-12-28T05:25:08;9.30;;;6.27;;
11121;SDS011;5615;49.304;10.576;2023-12-28T05:27:35;8.73;;;5.90;;
11121;SDS011;5615;49.304;10.576;2023-12-28T05:30:02;7.50;;;5.67;;
11121;SDS011;5615;49.304;10.576;2023-12-28T05:32:29;7.73;;;5.97;;
11121;SDS011;5615;49.304;10.576;2023-12-28T05:34:57;8.07;;;5.97;;
11121;SDS011;5615;49.304;10.576;2023-12-28T05:37:24;7.97;;;5.60;;
11121;SDS011;5615;49.304;10.576;2023-12-28T05:39:50;9.73;;;6.87;;
11121;SDS011;5615;49.304;10.576;2023-12-28T05:42:17;10.57;;;6.90;;
11121;SDS011;5615;49.304;10.576;2023-12-28T05:44:44;11.43;;;6.70;;
11121;SDS011;5615;49.304;10.576;2023-12-28T05:47:10;22.30;;;12.13;;
11121;SDS011;5615;49.304;10.576;2023-12-28T05:49:37;40.43;;;19.23;;
11121;SDS011;5615;49.304;10.576;2023-12-28T05:52:05;36.63;;;15.10;;
11121;SDS011;5615;49.304;10.576;2023-12-28T05:54:32;42.80;;;16.77;;
11121;SDS011;5615;49.304;10.576;2023-12-28T05:56:59;42.67;;;18.83;;
11121;SDS011;5615;49.304;10.576;2023-12-28T05:59:25;37.30;;;15.97;;
11121;SDS011;5615;49.304;10.576;2023-12-28T06:01:52;22.73;;;11.57;;
11121;SDS011;5615;49.304;10.576;2023-12-28T06:04:19;16.07;;;8.10;;
11121;SDS011;5615;49.304;10.576;2023-12-28T06:06:45;11.63;;;5.90;;
11121;SDS011;5615;49.304;10.576;2023-12-28T06:09:13;11.17;;;6.00;;
11121;SDS011;5615;49.304;10.576;2023-12-28T06:11:40;8.40;;;5.13;;
11121;SDS011;5615;49.304;10.576;2023-12-28T06:14:06;6.57;;;4.77;;
11121;SDS011;5615;49.304;10.576;2023-12-28T06:16:33;5.87;;;4.77;;
11121;SDS011;5615;49.304;10.576;2023-12-28T06:19:00;10.13;;;5.00;;
11121;SDS011;5615;49.304;10.576;2023-12-28T06:21:27;6.47;;;4.63;;
11121;SDS011;5615;49.304;10.576;2023-12-28T06:23:55;5.47;;;4.63;;
11121;SDS011;5615;49.304;10.576;2023-12-28T06:26:23;5.80;;;4.40;;
11121;SDS011;5615;49.304;10.576;2023-12-28T06:28:50;6.40;;;4.33;;
11121;SDS011;5615;49.304;10.576;2023-12-28T06:31:16;6.83;;;4.90;;
11121;SDS011;5615;49.304;10.576;2023-12-28T06:33:43;5.17;;;4.30;;
11121;SDS011;5615;49.304;10.576;2023-12-28T06:36:10;6.20;;;4.73;;
11121;SDS011;5615;49.304;10.576;2023-12-28T06:38:38;5.63;;;4.13;;
11121;SDS011;5615;49.304;10.576;2023-12-28T06:41:09;5.87;;;4.67;;
11121;SDS011;5615;49.304;10.576;2023-12-28T06:43:38;6.63;;;4.63;;
11121;SDS011;5615;49.304;10.576;2023-12-28T06:46:05;5.63;;;4.43;;
11121;SDS011;5615;49.304;10.576;2023-12-28T06:48:31;7.00;;;5.00;;
11121;SDS011;5615;49.304;10.576;2023-12-28T06:50:58;9.77;;;5.17;;
11121;SDS011;5615;49.304;10.576;2023-12-28T06:53:25;8.67;;;5.37;;
11121;SDS011;5615;49.304;10.576;2023-12-28T06:55:51;7.87;;;4.93;;
11121;SDS011;5615;49.304;10.576;2023-12-28T06:58:18;6.60;;;5.13;;
11121;SDS011;5615;49.304;10.576;2023-12-28T07:00:46;7.17;;;5.20;;
11121;SDS011;5615;49.304;10.576;2023-12-28T07:03:12;6.47;;;4.83;;
11121;SDS011;5615;49.304;10.576;2023-12-28T07:05:39;6.53;;;5.03;;
11121;SDS011;5615;49.304;10.576;2023-12-28T07:08:06;7.93;;;5.30;;
11121;SDS011;5615;49.304;10.576;2023-12-28T07:10:32;8.13;;;5.63;;
11121;SDS011;5615;49.304;10.576;2023-12-28T07:12:59;8.47;;;5.37;;
11121;SDS011;5615;49.304;10.576;2023-12-28T07:15:26;7.83;;;5.57;;
11121;SDS011;5615;49.304;10.576;2023-12-28T07:17:54;8.60;;;6.40;;
11121;SDS011;5615;49.304;10.576;2023-12-28T07:20:20;9.27;;;5.23;;
11121;SDS011;5615;49.304;10.576;2023-12-28T07:22:47;11.97;;;6.20;;
11121;SDS011;5615;49.304;10.576;2023-12-28T07:25:13;12.27;;;5.70;;
11121;SDS011;5615;49.304;10.576;2023-12-28T07:27:40;7.83;;;5.77;;
11121;SDS011;5615;49.304;10.576;2023-12-28T07:30:07;7.07;;;5.87;;
11121;SDS011;5615;49.304;10.576;2023-12-28T07:32:34;7.20;;;5.80;;
11121;SDS011;5615;49.304;10.576;2023-12-28T07:35:02;7.10;;;5.63;;
11121;SDS011;5615;49.304;10.576;2023-12-28T07:37:29;7.83;;;5.70;;
11121;SDS011;5615;49.304;10.576;2023-12-28T07:39:56;7.90;;;5.93;;
11121;SDS011;5615;49.304;10.576;2023-12-28T07:42:23;7.57;;;6.00;;
11121;SDS011;5615;49.304;10.576;2023-12-28T07:44:49;8.03;;;6.27;;
11121;SDS011;5615;49.304;10.576;2023-12-28T07:47:16;7.67;;;5.70;;
11121;SDS011;5615;49.304;10.576;2023-12-28T07:49:43;7.53;;;6.00;;
11121;SDS011;5615;49.304;10.576;2023-12-28T07:52:11;8.43;;;6.30;;
11121;SDS011;5615;49.304;10.576;2023-12-28T07:54:37;8.27;;;6.27;;
11121;SDS011;5615;49.304;10.576;2023-12-28T07:57:04;7.93;;;5.97;;
11121;SDS011;5615;49.304;10.576;2023-12-28T07:59:31;12.70;;;7.20;;
11121;SDS011;5615;49.304;10.576;2023-12-28T08:01:58;8.13;;;6.40;;
11121;SDS011;5615;49.304;10.576;2023-12-28T08:04:24;8.63;;;6.43;;
11121;SDS011;5615;49.304;10.576;2023-12-28T08:06:51;9.30;;;6.70;;
11121;SDS011;5615;49.304;10.576;2023-12-28T08:09:19;12.50;;;7.70;;
11121;SDS011;5615;49.304;10.576;2023-12-28T08:11:45;8.90;;;7.20;;
11121;SDS011;5615;49.304;10.576;2023-12-28T08:14:12;9.13;;;6.80;;
11121;SDS011;5615;49.304;10.576;2023-12-28T08:16:39;9.57;;;6.73;;
11121;SDS011;5615;49.304;10.576;2023-12-28T08:19:05;9.03;;;7.30;;
11121;SDS011;5615;49.304;10.576;2023-12-28T08:21:32;11.20;;;7.83;;
11121;SDS011;5615;49.304;10.576;2023-12-28T08:23:59;8.57;;;6.57;;
11121;SDS011;5615;49.304;10.576;2023-12-28T08:26:27;8.67;;;6.60;;
11121;SDS011;5615;49.304;10.576;2023-12-28T08:28:53;8.07;;;6.73;;
11121;SDS011;5615;49.304;10.576;2023-12-28T08:31:20;8.07;;;6.47;;
11121;SDS011;5615;49.304;10.576;2023-12-28T08:33:47;10.23;;;6.70;;
11121;SDS011;5615;49.304;10.576;2023-12-28T08:36:14;6.73;;;5.73;;
11121;SDS011;5615;49.304;10.576;2023-12-28T08:38:42;8.03;;;6.37;;
11121;SDS011;5615;49.304;10.576;2023-12-28T08:41:17;8.13;;;5.90;;
11121;SDS011;5615;49.304;10.576;2023-12-28T08:43:45;8.53;;;6.40;;
11121;SDS011;5615;49.304;10.576;2023-12-28T08:46:12;9.50;;;6.30;;
11121;SDS011;5615;49.304;10.576;2023-12-28T08:48:39;7.67;;;5.83;;
11121;SDS011;5615;49.304;10.576;2023-12-28T08:51:06;16.43;;;6.93;;
11121;SDS011;5615;49.304;10.576;2023-12-28T08:53:32;7.93;;;6.17;;
11121;SDS011;5615;49.304;10.576;2023-12-28T08:55:59;7.73;;;5.80;;
11121;SDS011;5615;49.304;10.576;2023-12-28T08:58:26;8.70;;;6.50;;
11121;SDS011;5615;49.304;10.576;2023-12-28T09:00:54;10.23;;;5.50;;
11121;SDS011;5615;49.304;10.576;2023-12-28T09:03:20;8.33;;;5.70;;
11121;SDS011;5615;49.304;10.576;2023-12-28T09:05:47;9.07;;;6.27;;
11121;SDS011;5615;49.304;10.576;2023-12-28T09:08:14;6.23;;;4.50;;
11121;SDS011;5615;49.304;10.576;2023-12-28T09:10:41;9.37;;;5.80;;
11121;SDS011;5615;49.304;10.576;2023-12-28T09:13:08;6.93;;;5.30;;
11121;SDS011;5615;49.304;10.576;2023-12-28T09:15:41;6.60;;;5.10;;
11121;SDS011;5615;49.304;10.576;2023-12-28T09:18:09;7.37;;;5.20;;
11121;SDS011;5615;49.304;10.576;2023-12-28T09:20:36;8.77;;;6.00;;
11121;SDS011;5615;49.304;10.576;2023-12-28T09:23:03;7.33;;;4.27;;
11121;SDS011;5615;49.304;10.576;2023-12-28T09:25:30;4.57;;;3.27;;
11121;SDS011;5615;49.304;10.576;2023-12-28T09:27:57;3.70;;;2.80;;
11121;SDS011;5615;49.304;10.576;2023-12-28T09:30:24;6.80;;;5.63;;
11121;SDS011;5615;49.304;10.576;2023-12-28T09:32:51;4.23;;;3.00;;
11121;SDS011;5615;49.304;10.576;2023-12-28T09:35:19;5.33;;;4.00;;
11121;SDS011;5615;49.304;10.576;2023-12-28T09:37:46;3.93;;;3.20;;
11121;SDS011;5615;49.304;10.576;2023-12-28T09:40:13;5.10;;;2.90;;
11121;SDS011;5615;49.304;10.576;2023-12-28T09:42:43;4.17;;;3.10;;
11121;SDS011;5615;49.304;10.576;2023-12-28T09:45:17;4.77;;;3.60;;
11121;SDS011;5615;49.304;10.576;2023-12-28T09:47:45;4.67;;;3.43;;
11121;SDS011;5615;49.304;10.576;2023-12-28T09:50:15;5.77;;;3.37;;
11121;SDS011;5615;49.304;10.576;2023-12-28T09:52:45;7.60;;;4.17;;
11121;SDS011;5615;49.304;10.576;2023-12-28T09:55:12;4.63;;;3.10;;
11121;SDS011;5615;49.304;10.576;2023-12-28T09:57:38;4.10;;;3.03;;
11121;SDS011;5615;49.304;10.576;2023-12-28T10:00:07;4.30;;;2.60;;
11121;SDS011;5615;49.304;10.576;2023-12-28T10:02:36;4.73;;;2.80;;
11121;SDS011;5615;49.304;10.576;2023-12-28T10:05:05;6.00;;;3.70;;
11121;SDS011;5615;49.304;10.576;2023-12-28T10:07:32;3.63;;;3.10;;
11121;SDS011;5615;49.304;10.576;2023-12-28T10:10:07;4.37;;;3.20;;
11121;SDS011;5615;49.304;10.576;2023-12-28T10:12:34;7.13;;;3.13;;
11121;SDS011;5615;49.304;10.576;2023-12-28T10:15:01;4.27;;;3.60;;
11121;SDS011;5615;49.304;10.576;2023-12-28T10:17:29;8.10;;;5.40;;
11121;SDS011;5615;49.304;10.576;2023-12-28T10:19:56;5.53;;;3.50;;
11121;SDS011;5615;49.304;10.576;2023-12-28T10:22:28;5.70;;;3.80;;
11121;SDS011;5615;49.304;10.576;2023-12-28T10:24:55;5.27;;;3.30;;
11121;SDS011;5615;49.304;10.576;2023-12-28T10:27:22;5.70;;;2.90;;
11121;SDS011;5615;49.304;10.576;2023-12-28T10:29:49;4.13;;;3.10;;
11121;SDS011;5615;49.304;10.576;2023-12-28T10:32:19;3.67;;;2.70;;
11121;SDS011;5615;49.304;10.576;2023-12-28T10:34:46;4.43;;;3.30;;
11121;SDS011;5615;49.304;10.576;2023-12-28T10:37:13;5.73;;;3.80;;
11121;SDS011;5615;49.304;10.576;2023-12-28T10:39:40;6.47;;;4.63;;
11121;SDS011;5615;49.304;10.576;2023-12-28T10:42:11;4.93;;;3.70;;
11121;SDS011;5615;49.304;10.576;2023-12-28T10:44:44;3.57;;;2.90;;
11121;SDS011;5615;49.304;10.576;2023-12-28T10:47:16;3.77;;;2.97;;
11121;SDS011;5615;49.304;10.576;2023-12-28T10:49:46;7.20;;;5.97;;
11121;SDS011;5615;49.304;10.576;2023-12-28T10:52:18;10.37;;;8.33;;
11121;SDS011;5615;49.304;10.576;2023-12-28T10:54:47;6.80;;;5.33;;
11121;SDS011;5615;49.304;10.576;2023-12-28T10:57:21;8.80;;;6.53;;
11121;SDS011;5615;49.304;10.576;2023-12-28T10:59:55;6.40;;;4.50;;
11121;SDS011;5615;49.304;10.576;2023-12-28T11:02:26;8.10;;;6.13;;
11121;SDS011;5615;49.304;10.576;2023-12-28T11:04:58;6.47;;;3.93;;
11121;SDS011;5615;49.304;10.576;2023-12-28T11:07:26;8.13;;;5.20;;
11121;SDS011;5615;49.304;10.576;2023-12-28T11:09:57;5.00;;;4.00;;
11121;SDS011;5615;49.304;10.576;2023-12-28T11:12:26;6.80;;;3.57;;
11121;SDS011;5615;49.304;10.576;2023-12-28T11:14:55;3.07;;;2.40;;
11121;SDS011;5615;49.304;10.576;2023-12-28T11:17:23;3.93;;;2.77;;
11121;SDS011;5615;49.304;10.576;2023-12-28T11:19:50;3.20;;;2.90;;
11121;SDS011;5615;49.304;10.576;2023-12-28T11:22:19;3.97;;;2.70;;
11121;SDS011;5615;49.304;10.576;2023-12-28T11:24:46;2.90;;;2.60;;
11121;SDS011;5615;49.304;10.576;2023-12-28T11:27:13;2.60;;;2.27;;
11121;SDS011;5615;49.304;10.576;2023-12-28T11:29:40;3.03;;;2.50;;
11121;SDS011;5615;49.304;10.576;2023-12-28T11:32:10;3.33;;;2.70;;
11121;SDS011;5615;49.304;10.576;2023-12-28T11:34:37;3.57;;;2.33;;
11121;SDS011;5615;49.304;10.576;2023-12-28T11:37:04;3.37;;;2.60;;
11121;SDS011;5615;49.304;10.576;2023-12-28T11:39:33;3.43;;;2.30;;
11121;SDS011;5615;49.304;10.576;2023-12-28T11:42:01;3.90;;;2.30;;
11121;SDS011;5615;49.304;10.576;2023-12-28T11:44:29;2.27;;;2.00;;
11121;SDS011;5615;49.304;10.576;2023-12-28T11:46:56;2.77;;;2.10;;
11121;SDS011;5615;49.304;10.576;2023-12-28T11:49:26;3.40;;;2.40;;
11121;SDS011;5615;49.304;10.576;2023-12-28T11:51:54;3.97;;;2.77;;
11121;SDS011;5615;49.304;10.576;2023-12-28T11:54:22;6.10;;;2.30;;
11121;SDS011;5615;49.304;10.576;2023-12-28T11:56:49;2.60;;;2.30;;
11121;SDS011;5615;49.304;10.576;2023-12-28T11:59:16;3.10;;;2.40;;
11121;SDS011;5615;49.304;10.576;2023-12-28T12:01:42;5.67;;;2.33;;
11121;SDS011;5615;49.304;10.576;2023-12-28T12:04:09;3.97;;;2.80;;
11121;SDS011;5615;49.304;10.576;2023-12-28T12:06:38;3.43;;;2.83;;
11121;SDS011;5615;49.304;10.576;2023-12-28T12:09:05;4.37;;;3.60;;
11121;SDS011;5615;49.304;10.576;2023-12-28T12:11:32;8.00;;;5.33;;
11121;SDS011;5615;49.304;10.576;2023-12-28T12:13:59;4.30;;;3.90;;
11121;SDS011;5615;49.304;10.576;2023-12-28T12:16:25;4.73;;;3.03;;
11121;SDS011;5615;49.304;10.576;2023-12-28T12:18:52;7.57;;;5.20;;
11121;SDS011;5615;49.304;10.576;2023-12-28T12:21:22;3.80;;;3.40;;
11121;SDS011;5615;49.304;10.576;2023-12-28T12:23:51;10.37;;;7.67;;
11121;SDS011;5615;49.304;10.576;2023-12-28T12:26:17;11.27;;;8.57;;
11121;SDS011;5615;49.304;10.576;2023-12-28T12:28:44;4.00;;;2.93;;
11121;SDS011;5615;49.304;10.576;2023-12-28T12:31:11;8.33;;;6.63;;
11121;SDS011;5615;49.304;10.576;2023-12-28T12:33:38;12.50;;;8.77;;
11121;SDS011;5615;49.304;10.576;2023-12-28T12:36:06;7.00;;;4.97;;
11121;SDS011;5615;49.304;10.576;2023-12-28T12:38:33;5.33;;;2.33;;
11121;SDS011;5615;49.304;10.576;2023-12-28T12:41:01;5.60;;;2.70;;
11121;SDS011;5615;49.304;10.576;2023-12-28T12:43:28;2.67;;;2.40;;
11121;SDS011;5615;49.304;10.576;2023-12-28T12:45:55;6.10;;;3.30;;
11121;SDS011;5615;49.304;10.576;2023-12-28T12:48:22;6.27;;;5.03;;
11121;SDS011;5615;49.304;10.576;2023-12-28T12:50:48;4.60;;;3.13;;
11121;SDS011;5615;49.304;10.576;2023-12-28T12:53:15;5.13;;;3.10;;
11121;SDS011;5615;49.304;10.576;2023-12-28T12:55:42;3.00;;;2.60;;
11121;SDS011;5615;49.304;10.576;2023-12-28T12:58:12;2.87;;;2.40;;
11121;SDS011;5615;49.304;10.576;2023-12-28T13:00:41;4.57;;;3.00;;
11121;SDS011;5615;49.304;10.576;2023-12-28T13:03:08;3.03;;;2.30;;
11121;SDS011;5615;49.304;10.576;2023-12-28T13:05:35;5.33;;;4.27;;
11121;SDS011;5615;49.304;10.576;2023-12-28T13:08:02;4.43;;;3.20;;
11121;SDS011;5615;49.304;10.576;2023-12-28T13:10:29;5.80;;;3.60;;
11121;SDS011;5615;49.304;10.576;2023-12-28T13:12:56;3.57;;;2.67;;
11121;SDS011;5615;49.304;10.576;2023-12-28T13:15:24;5.53;;;3.53;;
11121;SDS011;5615;49.304;10.576;2023-12-28T13:17:51;6.27;;;4.30;;
11121;SDS011;5615;49.304;10.576;2023-12-28T13:20:18;4.97;;;3.87;;
11121;SDS011;5615;49.304;10.576;2023-12-28T13:22:44;7.57;;;4.03;;
11121;SDS011;5615;49.304;10.576;2023-12-28T13:25:12;4.60;;;2.87;;
11121;SDS011;5615;49.304;10.576;2023-12-28T13:27:38;4.20;;;2.40;;
11121;SDS011;5615;49.304;10.576;2023-12-28T13:30:05;4.37;;;3.33;;
11121;SDS011;5615;49.304;10.576;2023-12-28T13:32:34;2.97;;;2.50;;
11121;SDS011;5615;49.304;10.576;2023-12-28T13:35:01;8.40;;;5.30;;
11121;SDS011;5615;49.304;10.576;2023-12-28T13:37:28;5.00;;;3.27;;
11121;SDS011;5615;49.304;10.576;2023-12-28T13:39:55;2.93;;;1.93;;
11121;SDS011;5615;49.304;10.576;2023-12-28T13:42:22;3.73;;;2.00;;
11121;SDS011;5615;49.304;10.576;2023-12-28T13:44:48;5.13;;;2.60;;
11121;SDS011;5615;49.304;10.576;2023-12-28T13:47:15;3.33;;;2.40;;
11121;SDS011;5615;49.304;10.576;2023-12-28T13:49:43;2.97;;;2.17;;
11121;SDS011;5615;49.304;10.576;2023-12-28T13:52:09;5.10;;;2.50;;
11121;SDS011;5615;49.304;10.576;2023-12-28T13:54:36;3.07;;;2.60;;
11121;SDS011;5615;49.304;10.576;2023-12-28T13:57:03;3.80;;;2.40;;
11121;SDS011;5615;49.304;10.576;2023-12-28T13:59:30;2.97;;;2.53;;
11121;SDS011;5615;49.304;10.576;2023-12-28T14:01:56;2.67;;;2.37;;
11121;SDS011;5615;49.304;10.576;2023-12-28T14:04:24;7.10;;;2.53;;
11121;SDS011;5615;49.304;10.576;2023-12-28T14:06:52;4.57;;;2.60;;
11121;SDS011;5615;49.304;10.576;2023-12-28T14:09:18;2.73;;;2.27;;
11121;SDS011;5615;49.304;10.576;2023-12-28T14:11:46;3.77;;;2.37;;
11121;SDS011;5615;49.304;10.576;2023-12-28T14:14:13;4.00;;;2.57;;
11121;SDS011;5615;49.304;10.576;2023-12-28T14:16:39;3.57;;;2.37;;
11121;SDS011;5615;49.304;10.576;2023-12-28T14:19:06;2.97;;;2.23;;
11121;SDS011;5615;49.304;10.576;2023-12-28T14:21:34;2.83;;;2.00;;
11121;SDS011;5615;49.304;10.576;2023-12-28T14:24:03;2.80;;;2.20;;
11121;SDS011;5615;49.304;10.576;2023-12-28T14:26:31;4.50;;;2.10;;
11121;SDS011;5615;49.304;10.576;2023-12-28T14:28:59;2.83;;;2.03;;
11121;SDS011;5615;49.304;10.576;2023-12-28T14:31:28;4.33;;;2.00;;
11121;SDS011;5615;49.304;10.576;2023-12-28T14:33:55;2.40;;;2.07;;
11121;SDS011;5615;49.304;10.576;2023-12-28T14:36:23;4.33;;;2.17;;
11121;SDS011;5615;49.304;10.576;2023-12-28T14:38:56;2.80;;;1.80;;
11121;SDS011;5615;49.304;10.576;2023-12-28T14:41:24;3.43;;;1.83;;
11121;SDS011;5615;49.304;10.576;2023-12-28T14:43:51;2.80;;;1.90;;
11121;SDS011;5615;49.304;10.576;2023-12-28T14:46:17;3.00;;;2.23;;